createdAt,value
2018-12-31T00:01:07.107Z,44.33
2018-12-31T00:06:10.601Z,39.07
2018-12-31T00:11:14.025Z,40.97
2018-12-31T00:16:17.455Z,35.53
2018-12-31T00:21:20.892Z,34.70
2018-12-31T00:26:24.326Z,33.10
2018-12-31T00:31:27.770Z,35.53
2018-12-31T00:36:31.242Z,31.20
2018-12-31T00:41:34.719Z,36.17
2018-12-31T00:46:38.165Z,33.23
2018-12-31T00:51:41.584Z,33.27
2018-12-31T00:56:45.019Z,33.03
2018-12-31T01:01:48.452Z,30.43
2018-12-31T01:06:51.878Z,35.97
2018-12-31T01:11:55.323Z,28.27
2018-12-31T01:16:58.747Z,32.03
2018-12-31T01:22:02.186Z,32.37
2018-12-31T01:27:05.629Z,28.20
2018-12-31T01:32:09.066Z,33.80
2018-12-31T01:37:12.512Z,26.97
2018-12-31T01:42:16.849Z,26.57
2018-12-31T01:47:20.356Z,29.03
2018-12-31T01:52:23.793Z,25.57
2018-12-31T01:57:27.223Z,25.80
2018-12-31T02:02:30.669Z,23.87
2018-12-31T02:07:34.156Z,26.77
2018-12-31T02:12:37.592Z,25.00
2018-12-31T02:17:41.051Z,26.33
2018-12-31T02:22:44.476Z,25.73
2018-12-31T02:27:47.917Z,22.67
2018-12-31T02:32:51.355Z,23.23
2018-12-31T02:37:54.847Z,24.00
2018-12-31T02:42:58.274Z,21.93
2018-12-31T02:48:01.694Z,21.97
2018-12-31T02:53:05.135Z,23.30
2018-12-31T02:58:08.816Z,21.70
2018-12-31T03:03:12.269Z,23.57
2018-12-31T03:08:15.694Z,19.70
2018-12-31T03:13:19.152Z,23.47
2018-12-31T03:18:22.670Z,24.47
2018-12-31T03:23:26.107Z,25.17
2018-12-31T03:28:29.534Z,28.23
2018-12-31T03:33:33.030Z,23.30
2018-12-31T03:38:36.465Z,28.07
2018-12-31T03:43:39.905Z,23.37
2018-12-31T03:48:43.347Z,30.10
2018-12-31T03:53:46.778Z,26.33
2018-12-31T03:58:50.219Z,27.77
2018-12-31T04:03:53.733Z,29.70
2018-12-31T04:08:57.163Z,31.37
2018-12-31T04:14:00.612Z,32.63
2018-12-31T04:19:04.124Z,28.17
2018-12-31T04:24:07.562Z,28.70
2018-12-31T04:29:10.988Z,31.77
2018-12-31T04:34:14.416Z,31.40
2018-12-31T04:39:17.851Z,32.60
2018-12-31T04:44:21.266Z,33.73
2018-12-31T04:49:24.732Z,31.87
2018-12-31T04:54:28.150Z,39.03
2018-12-31T04:59:31.585Z,36.13
2018-12-31T05:04:35.003Z,36.30
2018-12-31T05:09:38.427Z,34.87
2018-12-31T05:14:41.856Z,41.23
2018-12-31T05:19:45.303Z,36.80
2018-12-31T05:24:48.746Z,31.63
2018-12-31T05:29:52.438Z,34.63
2018-12-31T05:34:55.871Z,32.43
2018-12-31T05:39:59.315Z,36.43
2018-12-31T05:45:02.806Z,33.47
2018-12-31T05:50:06.357Z,34.47
2018-12-31T05:55:09.826Z,39.63
2018-12-31T06:00:13.383Z,43.23
2018-12-31T06:05:16.820Z,43.10
2018-12-31T06:10:20.258Z,36.47
2018-12-31T06:15:23.700Z,39.10
2018-12-31T06:20:27.141Z,38.80
2018-12-31T06:25:30.964Z,29.33
2018-12-31T06:30:34.398Z,36.20
2018-12-31T06:35:37.853Z,36.00
2018-12-31T06:40:41.271Z,39.37
2018-12-31T06:45:44.704Z,35.13
2018-12-31T06:50:48.142Z,37.97
2018-12-31T06:55:51.584Z,38.03
2018-12-31T07:00:55.028Z,37.50
2018-12-31T07:05:58.473Z,39.03
2018-12-31T07:11:01.985Z,35.23
2018-12-31T07:16:05.418Z,36.80
2018-12-31T07:21:08.846Z,33.97
2018-12-31T07:26:12.365Z,40.37
2018-12-31T07:31:15.795Z,35.80
2018-12-31T07:36:19.254Z,37.53
2018-12-31T07:41:22.766Z,37.40
2018-12-31T07:46:26.188Z,38.90
2018-12-31T07:51:29.632Z,36.93
2018-12-31T07:56:33.070Z,43.13
2018-12-31T08:01:36.605Z,37.37
2018-12-31T08:06:40.052Z,30.90
2018-12-31T08:11:43.520Z,36.47
2018-12-31T08:16:46.933Z,33.60
2018-12-31T08:21:50.358Z,42.17
2018-12-31T08:26:53.802Z,31.40
2018-12-31T08:31:57.236Z,46.70
2018-12-31T08:37:00.709Z,36.27
2018-12-31T08:42:04.193Z,50.10
2018-12-31T08:47:07.623Z,34.17
2018-12-31T08:52:11.062Z,30.80
2018-12-31T08:57:14.502Z,34.30
2018-12-31T09:02:17.928Z,33.00
2018-12-31T09:07:21.361Z,28.40
2018-12-31T09:12:24.819Z,31.90
2018-12-31T09:17:28.245Z,29.73
2018-12-31T09:22:31.686Z,26.73
2018-12-31T09:27:35.125Z,24.47
2018-12-31T09:32:38.570Z,24.37
2018-12-31T09:37:42.061Z,24.73
2018-12-31T09:42:45.555Z,16.73
2018-12-31T09:47:49.133Z,19.80
2018-12-31T09:52:52.572Z,16.03
2018-12-31T09:57:56.110Z,18.60
2018-12-31T10:02:59.533Z,16.90
2018-12-31T10:08:02.957Z,15.67
2018-12-31T10:13:06.392Z,15.53
2018-12-31T10:18:09.818Z,14.60
2018-12-31T10:23:13.289Z,17.40
2018-12-31T10:28:16.826Z,14.77
2018-12-31T10:33:20.253Z,16.83
2018-12-31T10:38:23.746Z,25.93
2018-12-31T10:43:27.197Z,14.13
2018-12-31T10:48:30.626Z,16.23
2018-12-31T10:53:34.071Z,12.87
2018-12-31T10:58:37.500Z,15.17
2018-12-31T11:03:42.048Z,13.13
2018-12-31T11:08:45.547Z,15.17
2018-12-31T11:13:48.984Z,15.93
2018-12-31T11:18:52.422Z,15.73
2018-12-31T11:23:55.859Z,13.37
2018-12-31T11:28:59.350Z,21.37
2018-12-31T11:34:02.867Z,17.53
2018-12-31T11:39:07.133Z,16.93
2018-12-31T11:44:10.591Z,19.67
2018-12-31T11:49:14.020Z,23.00
2018-12-31T11:54:17.458Z,18.33
2018-12-31T11:59:20.946Z,18.43
2018-12-31T12:04:24.398Z,19.47
2018-12-31T12:09:27.830Z,16.53
2018-12-31T12:14:31.278Z,22.43
2018-12-31T12:19:34.707Z,18.93
2018-12-31T12:24:38.149Z,24.40
2018-12-31T12:29:41.586Z,19.20
2018-12-31T12:34:45.022Z,12.60
2018-12-31T12:39:48.645Z,18.30
2018-12-31T12:44:52.156Z,17.63
2018-12-31T12:49:55.912Z,16.47
2018-12-31T12:54:59.374Z,20.43
2018-12-31T13:00:04.002Z,25.13
2018-12-31T13:05:07.571Z,32.50
2018-12-31T13:10:11.505Z,14.30
2018-12-31T13:15:15.199Z,19.67
2018-12-31T13:20:19.032Z,19.80
2018-12-31T13:25:22.551Z,35.27
2018-12-31T13:30:25.993Z,18.50
2018-12-31T13:35:29.481Z,19.83
2018-12-31T13:40:34.379Z,22.00
2018-12-31T13:45:37.843Z,28.37
2018-12-31T13:50:41.320Z,19.03
2018-12-31T13:55:44.860Z,16.77
2018-12-31T14:00:48.305Z,15.53
2018-12-31T14:05:53.493Z,16.77
2018-12-31T14:10:56.948Z,22.20
2018-12-31T14:16:00.386Z,19.67
2018-12-31T14:21:03.901Z,17.43
2018-12-31T14:26:07.349Z,23.53
2018-12-31T14:31:10.791Z,18.30
2018-12-31T14:36:14.222Z,19.43
2018-12-31T14:41:17.663Z,21.10
2018-12-31T14:46:23.039Z,26.07
2018-12-31T14:51:26.278Z,23.03
2018-12-31T14:56:29.730Z,18.60
2018-12-31T15:01:33.177Z,20.37
2018-12-31T15:06:36.632Z,18.00
2018-12-31T15:11:40.072Z,14.30
2018-12-31T15:16:43.527Z,18.33
2018-12-31T15:21:46.993Z,27.07
2018-12-31T15:26:50.441Z,23.30
2018-12-31T15:31:53.959Z,20.47
2018-12-31T15:36:57.398Z,19.93
2018-12-31T15:42:02.401Z,23.10
2018-12-31T15:47:09.289Z,26.40
2018-12-31T15:52:12.745Z,36.10
2018-12-31T15:57:16.411Z,35.37
2018-12-31T16:02:22.901Z,21.27
2018-12-31T16:07:26.613Z,18.37
2018-12-31T16:12:30.059Z,18.60
2018-12-31T16:17:33.882Z,27.93
2018-12-31T16:22:39.393Z,35.73
2018-12-31T16:27:43.044Z,24.67
2018-12-31T16:32:46.480Z,28.67
2018-12-31T16:37:49.893Z,20.83
2018-12-31T16:42:53.352Z,23.27
2018-12-31T16:47:56.784Z,31.03
2018-12-31T16:53:00.225Z,22.17
2018-12-31T16:58:03.721Z,23.13
2018-12-31T17:03:07.152Z,25.77
2018-12-31T17:08:10.587Z,27.57
2018-12-31T17:13:14.046Z,27.30
2018-12-31T17:18:17.570Z,22.00
2018-12-31T17:23:21.076Z,22.43
2018-12-31T17:28:24.505Z,24.00
2018-12-31T17:33:29.158Z,21.40
2018-12-31T17:38:32.758Z,27.73
2018-12-31T17:43:36.190Z,19.50
2018-12-31T17:48:39.615Z,25.27
2018-12-31T17:53:43.447Z,29.03
2018-12-31T17:58:46.877Z,26.30
2018-12-31T18:03:50.763Z,23.97
2018-12-31T18:08:54.214Z,27.83
2018-12-31T18:13:58.705Z,30.63
2018-12-31T18:19:02.150Z,29.53
2018-12-31T18:24:05.587Z,25.33
2018-12-31T18:29:09.021Z,31.67
2018-12-31T18:34:12.457Z,35.30
2018-12-31T18:39:15.916Z,36.00
2018-12-31T18:44:19.406Z,35.27
2018-12-31T18:49:22.805Z,33.07
2018-12-31T18:54:26.374Z,37.07
2018-12-31T18:59:29.784Z,37.50
2018-12-31T19:04:33.224Z,39.27
2018-12-31T19:09:37.506Z,34.27
2018-12-31T19:14:40.934Z,35.00
2018-12-31T19:19:44.399Z,43.13
2018-12-31T19:24:47.817Z,30.00
2018-12-31T19:29:51.326Z,32.67
2018-12-31T19:34:54.776Z,32.17
2018-12-31T19:39:58.297Z,30.50
2018-12-31T19:45:01.726Z,30.50
2018-12-31T19:50:05.697Z,39.20
2018-12-31T19:55:09.141Z,32.40
2018-12-31T20:00:12.968Z,33.27
2018-12-31T20:05:16.366Z,32.43
2018-12-31T20:10:19.807Z,39.20
2018-12-31T20:15:23.256Z,33.17
2018-12-31T20:20:26.703Z,35.43
2018-12-31T20:25:30.142Z,33.00
2018-12-31T20:30:33.557Z,33.77
2018-12-31T20:35:37.018Z,36.00
2018-12-31T20:40:40.462Z,42.43
2018-12-31T20:45:43.902Z,52.40
2018-12-31T20:50:47.320Z,36.07
2018-12-31T20:55:50.776Z,33.47
2018-12-31T21:00:54.274Z,38.23
2018-12-31T21:05:57.697Z,31.37
2018-12-31T21:11:01.103Z,33.40
2018-12-31T21:16:05.524Z,31.17
2018-12-31T21:21:09.099Z,30.17
2018-12-31T21:26:12.605Z,29.80
2018-12-31T21:31:16.048Z,32.87
2018-12-31T21:36:19.486Z,29.33
2018-12-31T21:41:23.309Z,31.20
2018-12-31T21:46:26.748Z,28.27
2018-12-31T21:51:30.981Z,29.43
2018-12-31T21:56:34.588Z,33.40
2018-12-31T22:01:38.009Z,34.37
2018-12-31T22:06:41.463Z,30.90
2018-12-31T22:11:44.899Z,33.43
2018-12-31T22:16:48.340Z,34.63
2018-12-31T22:21:51.792Z,33.17
2018-12-31T22:26:55.224Z,36.77
2018-12-31T22:31:58.660Z,30.07
2018-12-31T22:37:02.086Z,32.90
2018-12-31T22:42:05.530Z,38.27
2018-12-31T22:47:09.358Z,39.83
2018-12-31T22:52:12.801Z,39.47
2018-12-31T22:57:16.638Z,43.17
2018-12-31T23:02:20.105Z,70.80
2018-12-31T23:07:23.540Z,126.07
2018-12-31T23:12:27.001Z,134.20
2018-12-31T23:17:30.467Z,158.90
2018-12-31T23:22:33.896Z,141.60
2018-12-31T23:27:37.342Z,68.23
2018-12-31T23:32:40.768Z,67.00
2018-12-31T23:37:44.203Z,85.03
2018-12-31T23:42:47.751Z,64.77
2018-12-31T23:47:51.225Z,52.60
2018-12-31T23:52:54.685Z,40.33
2018-12-31T23:57:58.134Z,64.07
